createdAt,value
2019-02-15T00:00:53.508Z,4.80
2019-02-15T00:01:30.459Z,4.80
2019-02-15T00:02:06.300Z,4.80
2019-02-15T00:02:42.040Z,4.80
2019-02-15T00:03:17.860Z,4.80
2019-02-15T00:03:53.503Z,4.80
2019-02-15T00:04:29.060Z,4.80
2019-02-15T00:05:04.840Z,4.70
2019-02-15T00:05:40.459Z,4.80
2019-02-15T00:06:16.428Z,4.80
2019-02-15T00:06:51.959Z,4.80
2019-02-15T00:07:27.579Z,4.80
2019-02-15T00:08:03.241Z,4.80
2019-02-15T00:08:39.040Z,4.80
2019-02-15T00:09:14.759Z,4.80
2019-02-15T00:09:50.619Z,4.80
2019-02-15T00:10:26.391Z,4.80
2019-02-15T00:11:02.017Z,4.80
2019-02-15T00:11:37.739Z,4.80
2019-02-15T00:12:13.600Z,4.80
2019-02-15T00:12:49.349Z,4.80
2019-02-15T00:13:24.949Z,4.80
2019-02-15T00:14:00.750Z,4.80
2019-02-15T00:14:47.632Z,4.80
2019-02-15T00:15:23.347Z,4.80
2019-02-15T00:15:58.966Z,4.80
2019-02-15T00:16:34.723Z,4.70
2019-02-15T00:17:10.682Z,4.70
2019-02-15T00:18:11.208Z,4.80
2019-02-15T00:19:05.681Z,4.80
2019-02-15T00:19:44.666Z,4.80
2019-02-15T00:20:31.484Z,4.70
2019-02-15T00:21:19.114Z,4.70
2019-02-15T00:21:55.127Z,4.70
2019-02-15T00:22:30.955Z,4.70
2019-02-15T00:23:06.674Z,4.80
2019-02-15T00:23:42.502Z,4.70
2019-02-15T00:24:18.242Z,4.80
2019-02-15T00:24:55.340Z,4.80
2019-02-15T00:25:30.943Z,4.80
2019-02-15T00:26:06.690Z,4.70
2019-02-15T00:26:42.344Z,4.80
2019-02-15T00:27:17.987Z,4.70
2019-02-15T00:27:53.583Z,4.80
2019-02-15T00:28:29.242Z,4.70
2019-02-15T00:29:04.984Z,4.70
2019-02-15T00:29:40.582Z,4.80
2019-02-15T00:30:16.251Z,4.80
2019-02-15T00:30:52.083Z,4.80
2019-02-15T00:31:27.743Z,4.80
2019-02-15T00:32:03.302Z,4.80
2019-02-15T00:32:39.051Z,4.80
2019-02-15T00:33:14.731Z,4.80
2019-02-15T00:33:50.491Z,4.80
2019-02-15T00:34:26.235Z,4.80
2019-02-15T00:35:01.844Z,4.80
2019-02-15T00:35:37.607Z,4.80
2019-02-15T00:36:13.440Z,4.80
2019-02-15T00:36:49.130Z,4.80
2019-02-15T00:37:24.707Z,4.80
2019-02-15T00:38:00.248Z,4.80
2019-02-15T00:38:36.087Z,4.80
2019-02-15T00:39:11.749Z,4.80
2019-02-15T00:39:47.569Z,4.80
2019-02-15T00:40:23.299Z,4.80
2019-02-15T00:40:58.964Z,4.80
2019-02-15T00:41:34.583Z,4.80
2019-02-15T00:42:10.387Z,4.80
2019-02-15T00:42:46.175Z,4.80
2019-02-15T00:43:22.490Z,4.80
2019-02-15T00:43:58.582Z,4.80
2019-02-15T00:44:34.343Z,4.80
2019-02-15T00:45:11.250Z,4.80
2019-02-15T00:45:57.986Z,4.80
2019-02-15T00:46:39.164Z,4.70
2019-02-15T00:47:32.485Z,4.70
2019-02-15T00:48:14.985Z,4.70
2019-02-15T00:48:50.690Z,4.70
2019-02-15T00:50:00.285Z,4.70
2019-02-15T00:50:54.818Z,4.70
2019-02-15T00:51:44.021Z,4.70
2019-02-15T00:52:38.569Z,4.70
2019-02-15T00:53:29.749Z,4.70
2019-02-15T00:54:21.679Z,4.70
2019-02-15T00:55:25.679Z,4.70
2019-02-15T00:56:20.055Z,4.70
2019-02-15T00:57:17.500Z,4.70
2019-02-15T00:58:10.947Z,4.70
2019-02-15T00:59:08.082Z,4.70
2019-02-15T01:00:08.510Z,4.70
2019-02-15T01:01:01.542Z,4.70
2019-02-15T01:01:54.522Z,4.70
2019-02-15T01:02:58.180Z,4.70
2019-02-15T01:03:52.859Z,4.70
2019-02-15T01:04:45.799Z,4.70
2019-02-15T01:05:44.978Z,4.70
2019-02-15T01:06:48.479Z,4.70
2019-02-15T01:07:34.880Z,4.70
2019-02-15T01:08:20.862Z,4.70
2019-02-15T01:09:10.132Z,4.70
2019-02-15T01:09:54.332Z,4.70
2019-02-15T01:10:36.003Z,4.70
2019-02-15T01:11:22.224Z,4.70
2019-02-15T01:12:19.743Z,4.70
2019-02-15T01:13:03.570Z,4.70
2019-02-15T01:13:39.388Z,4.70
2019-02-15T01:14:15.166Z,4.70
2019-02-15T01:14:50.825Z,4.70
2019-02-15T01:15:26.446Z,4.70
2019-02-15T01:16:02.027Z,4.70
2019-02-15T01:16:37.573Z,4.70
2019-02-15T01:17:13.252Z,4.70
2019-02-15T01:17:49.009Z,4.70
2019-02-15T01:18:24.746Z,4.70
2019-02-15T01:19:00.278Z,4.70
2019-02-15T01:19:35.996Z,4.70
2019-02-15T01:20:11.754Z,4.70
2019-02-15T01:20:47.468Z,4.70
2019-02-15T01:21:23.059Z,4.70
2019-02-15T01:21:58.604Z,4.70
2019-02-15T01:22:34.165Z,4.70
2019-02-15T01:23:10.583Z,4.70
2019-02-15T01:23:46.405Z,4.70
2019-02-15T01:24:22.345Z,4.70
2019-02-15T01:24:57.996Z,4.70
2019-02-15T01:25:39.862Z,4.80
2019-02-15T01:26:23.482Z,4.70
2019-02-15T01:27:02.406Z,4.70
2019-02-15T01:27:44.591Z,4.70
2019-02-15T01:28:39.127Z,4.70
2019-02-15T01:29:45.969Z,4.70
2019-02-15T01:30:39.305Z,4.70
2019-02-15T01:31:28.927Z,4.70
2019-02-15T01:32:23.662Z,4.70
2019-02-15T01:33:27.867Z,4.70
2019-02-15T01:34:34.842Z,4.70
2019-02-15T01:35:35.242Z,4.70
2019-02-15T01:36:32.794Z,4.70
2019-02-15T01:37:29.949Z,4.70
2019-02-15T01:38:27.381Z,4.70
2019-02-15T01:39:24.620Z,4.70
2019-02-15T01:40:27.920Z,4.70
2019-02-15T01:41:20.334Z,4.70
2019-02-15T01:42:13.802Z,4.70
2019-02-15T01:43:14.218Z,4.70
2019-02-15T01:43:57.199Z,4.70
2019-02-15T01:44:42.099Z,4.70
2019-02-15T01:45:27.847Z,4.70
2019-02-15T01:46:31.739Z,4.70
2019-02-15T01:47:29.279Z,4.70
2019-02-15T01:48:04.860Z,4.70
2019-02-15T01:48:40.518Z,4.70
2019-02-15T01:49:16.319Z,4.70
2019-02-15T01:49:52.039Z,4.70
2019-02-15T01:50:28.150Z,4.70
2019-02-15T01:51:03.825Z,4.70
2019-02-15T01:51:39.461Z,4.70
2019-02-15T01:52:15.150Z,4.70
2019-02-15T01:52:50.840Z,4.70
2019-02-15T01:53:26.440Z,4.70
2019-02-15T01:54:02.008Z,4.70
2019-02-15T01:54:37.838Z,4.60
2019-02-15T01:55:13.770Z,4.70
2019-02-15T01:55:49.404Z,4.70
2019-02-15T01:56:24.948Z,4.70
2019-02-15T01:57:00.599Z,4.70
2019-02-15T01:57:36.425Z,4.70
2019-02-15T01:58:12.103Z,4.70
2019-02-15T01:58:47.825Z,4.70
2019-02-15T01:59:23.646Z,4.70
2019-02-15T01:59:59.387Z,4.70
2019-02-15T02:00:35.779Z,4.70
2019-02-15T02:01:11.420Z,4.60
2019-02-15T02:01:47.145Z,4.60
2019-02-15T02:02:24.225Z,4.70
2019-02-15T02:03:00.168Z,4.60
2019-02-15T02:03:35.998Z,4.60
2019-02-15T02:04:11.763Z,4.60
2019-02-15T02:04:47.503Z,4.70
2019-02-15T02:05:23.314Z,4.60
2019-02-15T02:05:58.891Z,4.60
2019-02-15T02:06:34.715Z,4.60
2019-02-15T02:07:10.538Z,4.60
2019-02-15T02:07:46.252Z,4.60
2019-02-15T02:08:25.216Z,4.60
2019-02-15T02:09:00.978Z,4.60
2019-02-15T02:09:37.130Z,4.60
2019-02-15T02:10:13.241Z,4.60
2019-02-15T02:10:49.102Z,4.60
2019-02-15T02:11:24.841Z,4.60
2019-02-15T02:12:00.532Z,4.50
2019-02-15T02:12:36.303Z,4.50
2019-02-15T02:13:12.046Z,4.50
2019-02-15T02:13:49.717Z,4.60
2019-02-15T02:14:24.901Z,4.50
2019-02-15T02:15:00.502Z,4.50
2019-02-15T02:15:36.222Z,4.50
2019-02-15T02:16:12.041Z,4.50
2019-02-15T02:16:47.803Z,4.50
2019-02-15T02:17:23.302Z,4.50
2019-02-15T02:17:59.090Z,4.50
2019-02-15T02:18:34.692Z,4.50
2019-02-15T02:19:10.390Z,4.50
2019-02-15T02:19:46.082Z,4.50
2019-02-15T02:20:21.582Z,4.50
2019-02-15T02:20:57.282Z,4.50
2019-02-15T02:21:32.764Z,4.50
2019-02-15T02:22:08.531Z,4.50
2019-02-15T02:22:44.348Z,4.50
2019-02-15T02:23:20.473Z,4.50
2019-02-15T02:23:56.230Z,4.50
2019-02-15T02:24:31.806Z,4.50
2019-02-15T02:25:07.585Z,4.40
2019-02-15T02:25:43.241Z,4.50
2019-02-15T02:26:18.906Z,4.50
2019-02-15T02:26:54.721Z,4.50
2019-02-15T02:27:30.548Z,4.50
2019-02-15T02:28:06.342Z,4.50
2019-02-15T02:28:42.086Z,4.50
2019-02-15T02:29:17.754Z,4.50
2019-02-15T02:29:53.428Z,4.50
2019-02-15T02:30:29.397Z,4.40
2019-02-15T02:31:05.089Z,4.40
2019-02-15T02:31:40.747Z,4.40
2019-02-15T02:32:16.392Z,4.40
2019-02-15T02:32:52.067Z,4.40
2019-02-15T02:33:27.827Z,4.40
2019-02-15T02:34:03.590Z,4.40
2019-02-15T02:34:39.388Z,4.50
2019-02-15T02:35:15.146Z,4.50
2019-02-15T02:35:50.685Z,4.50
2019-02-15T02:36:54.262Z,4.40
2019-02-15T02:37:30.031Z,4.40
2019-02-15T02:38:05.642Z,4.40
2019-02-15T02:38:41.550Z,4.40
2019-02-15T02:39:17.281Z,4.40
2019-02-15T02:39:52.981Z,4.40
2019-02-15T02:40:28.822Z,4.40
2019-02-15T02:41:04.493Z,4.40
2019-02-15T02:41:40.339Z,4.30
2019-02-15T02:42:15.880Z,4.40
2019-02-15T02:42:51.455Z,4.40
2019-02-15T02:43:27.032Z,4.40
2019-02-15T02:44:02.607Z,4.40
2019-02-15T02:44:38.375Z,4.40
2019-02-15T02:45:13.936Z,4.40
2019-02-15T02:45:49.560Z,4.40
2019-02-15T02:46:25.200Z,4.40
2019-02-15T02:47:00.842Z,4.40
2019-02-15T02:47:36.320Z,4.40
2019-02-15T02:48:12.467Z,4.40
2019-02-15T02:48:48.209Z,4.30
2019-02-15T02:49:23.765Z,4.30
2019-02-15T02:49:59.356Z,4.30
2019-02-15T02:50:35.135Z,4.30
2019-02-15T02:51:10.944Z,4.30
2019-02-15T02:51:46.739Z,4.30
2019-02-15T02:52:22.481Z,4.30
2019-02-15T02:52:58.197Z,4.30
2019-02-15T02:53:33.925Z,4.30
2019-02-15T02:54:09.525Z,4.30
2019-02-15T02:54:45.355Z,4.30
2019-02-15T02:55:21.054Z,4.30
2019-02-15T02:55:56.762Z,4.30
2019-02-15T02:56:32.663Z,4.30
2019-02-15T02:57:08.286Z,4.30
2019-02-15T02:57:43.803Z,4.30
2019-02-15T02:58:19.348Z,4.30
2019-02-15T02:58:54.945Z,4.30
2019-02-15T02:59:30.683Z,4.30
2019-02-15T03:00:06.677Z,4.30
2019-02-15T03:00:43.361Z,4.30
2019-02-15T03:01:19.091Z,4.30
2019-02-15T03:01:54.683Z,4.30
2019-02-15T03:02:30.418Z,4.30
2019-02-15T03:03:06.123Z,4.30
2019-02-15T03:03:41.860Z,4.20
2019-02-15T03:04:17.600Z,4.20
2019-02-15T03:04:53.340Z,4.20
2019-02-15T03:05:28.931Z,4.20
2019-02-15T03:06:04.544Z,4.20
2019-02-15T03:06:40.324Z,4.20
2019-02-15T03:07:16.082Z,4.20
2019-02-15T03:07:51.740Z,4.20
2019-02-15T03:08:27.368Z,4.20
2019-02-15T03:09:04.226Z,4.30
2019-02-15T03:09:39.744Z,4.20
2019-02-15T03:10:15.501Z,4.20
2019-02-15T03:10:51.219Z,4.20
2019-02-15T03:11:27.067Z,4.20
2019-02-15T03:12:02.667Z,4.30
2019-02-15T03:12:38.340Z,4.20
2019-02-15T03:13:14.110Z,4.20
2019-02-15T03:13:49.949Z,4.30
2019-02-15T03:14:25.599Z,4.20
2019-02-15T03:15:01.413Z,4.20
2019-02-15T03:15:37.088Z,4.20
2019-02-15T03:16:12.811Z,4.20
2019-02-15T03:16:48.601Z,4.20
2019-02-15T03:17:24.332Z,4.20
2019-02-15T03:17:59.986Z,4.30
2019-02-15T03:18:35.667Z,4.30
2019-02-15T03:19:11.315Z,4.30
2019-02-15T03:19:47.038Z,4.30
2019-02-15T03:20:30.972Z,4.30
2019-02-15T03:20:59.926Z,4.30
2019-02-15T03:21:35.619Z,4.30
2019-02-15T03:22:11.240Z,4.30
2019-02-15T03:22:46.892Z,4.20
2019-02-15T03:23:22.609Z,4.30
2019-02-15T03:23:58.224Z,4.30
2019-02-15T03:24:33.730Z,4.30
2019-02-15T03:25:09.522Z,4.30
2019-02-15T03:25:45.328Z,4.30
2019-02-15T03:26:20.946Z,4.30
2019-02-15T03:26:56.673Z,4.30
2019-02-15T03:27:32.409Z,4.30
2019-02-15T03:28:08.047Z,4.30
2019-02-15T03:28:43.788Z,4.30
2019-02-15T03:29:19.495Z,4.30
2019-02-15T03:29:55.249Z,4.30
2019-02-15T03:30:31.005Z,4.30
2019-02-15T03:31:06.978Z,4.30
2019-02-15T03:31:42.743Z,4.30
2019-02-15T03:32:18.427Z,4.30
2019-02-15T03:32:53.961Z,4.30
2019-02-15T03:33:29.496Z,4.20
2019-02-15T03:34:05.285Z,4.30
2019-02-15T03:34:41.039Z,4.30
2019-02-15T03:35:16.659Z,4.20
2019-02-15T03:36:03.189Z,4.20
2019-02-15T03:36:56.552Z,4.20
2019-02-15T03:37:40.047Z,4.20
2019-02-15T03:38:37.593Z,4.20
2019-02-15T03:39:41.192Z,4.20
2019-02-15T03:40:21.334Z,4.20
2019-02-15T03:41:00.354Z,4.20
2019-02-15T03:41:36.164Z,4.20
2019-02-15T03:42:14.387Z,4.20
2019-02-15T03:42:50.202Z,4.20
2019-02-15T03:43:25.717Z,4.20
2019-02-15T03:44:01.371Z,4.20
2019-02-15T03:44:37.002Z,4.20
2019-02-15T03:45:13.187Z,4.20
2019-02-15T03:45:48.881Z,4.20
2019-02-15T03:46:24.722Z,4.20
2019-02-15T03:47:00.358Z,4.20
2019-02-15T03:47:36.139Z,4.20
2019-02-15T03:48:12.020Z,4.20
2019-02-15T03:48:47.718Z,4.10
2019-02-15T03:49:23.587Z,4.10
2019-02-15T03:49:59.126Z,4.10
2019-02-15T03:50:34.985Z,4.10
2019-02-15T03:51:10.641Z,4.10
2019-02-15T03:51:46.326Z,4.10
2019-02-15T03:52:21.967Z,4.10
2019-02-15T03:52:57.826Z,4.10
2019-02-15T03:53:33.529Z,4.10
2019-02-15T03:54:09.249Z,4.10
2019-02-15T03:54:44.941Z,4.10
2019-02-15T03:55:20.669Z,4.10
2019-02-15T03:55:56.268Z,4.10
2019-02-15T03:56:32.000Z,4.10
2019-02-15T03:57:07.608Z,4.10
2019-02-15T03:57:43.785Z,4.10
2019-02-15T03:58:19.720Z,4.10
2019-02-15T03:58:55.462Z,4.10
2019-02-15T03:59:31.168Z,4.10
2019-02-15T04:00:07.707Z,4.10
2019-02-15T04:00:43.519Z,4.10
2019-02-15T04:01:19.381Z,4.10
2019-02-15T04:01:55.061Z,4.10
2019-02-15T04:02:30.962Z,4.10
2019-02-15T04:03:06.621Z,4.10
2019-02-15T04:03:42.522Z,4.10
2019-02-15T04:04:18.171Z,4.10
2019-02-15T04:04:54.635Z,4.10
2019-02-15T04:05:30.562Z,4.10
2019-02-15T04:06:06.441Z,4.10
2019-02-15T04:06:42.805Z,4.10
2019-02-15T04:07:18.442Z,4.10
2019-02-15T04:07:54.710Z,4.10
2019-02-15T04:08:30.588Z,4.10
2019-02-15T04:09:07.241Z,4.10
2019-02-15T04:09:43.962Z,4.10
2019-02-15T04:10:19.608Z,4.10
2019-02-15T04:10:55.280Z,4.10
2019-02-15T04:11:30.984Z,4.00
2019-02-15T04:12:06.544Z,4.00
2019-02-15T04:12:42.225Z,4.00
2019-02-15T04:13:17.945Z,4.00
2019-02-15T04:13:53.684Z,4.00
2019-02-15T04:14:32.952Z,4.00
2019-02-15T04:15:07.531Z,4.00
2019-02-15T04:15:43.162Z,4.00
2019-02-15T04:16:18.710Z,4.00
2019-02-15T04:16:54.315Z,4.00
2019-02-15T04:17:29.957Z,4.00
2019-02-15T04:18:05.549Z,4.00
2019-02-15T04:18:41.041Z,4.00
2019-02-15T04:19:16.702Z,4.00
2019-02-15T04:19:52.301Z,4.00
2019-02-15T04:20:27.875Z,3.90
2019-02-15T04:21:03.488Z,4.00
2019-02-15T04:21:39.132Z,4.00
2019-02-15T04:22:14.690Z,4.00
2019-02-15T04:22:50.343Z,4.00
2019-02-15T04:23:25.923Z,4.00
2019-02-15T04:24:02.218Z,4.00
2019-02-15T04:24:37.851Z,3.90
2019-02-15T04:25:13.462Z,3.90
2019-02-15T04:25:49.346Z,3.90
2019-02-15T04:26:25.005Z,3.90
2019-02-15T04:27:00.642Z,3.90
2019-02-15T04:27:36.634Z,3.90
2019-02-15T04:28:12.368Z,3.90
2019-02-15T04:28:48.153Z,3.90
2019-02-15T04:29:23.893Z,3.90
2019-02-15T04:29:59.603Z,3.90
2019-02-15T04:30:35.380Z,3.90
2019-02-15T04:31:11.533Z,3.90
2019-02-15T04:31:47.292Z,3.90
2019-02-15T04:32:22.952Z,3.90
2019-02-15T04:32:58.622Z,3.90
2019-02-15T04:33:34.818Z,3.90
2019-02-15T04:34:10.586Z,3.90
2019-02-15T04:34:46.242Z,3.90
2019-02-15T04:35:22.045Z,3.90
2019-02-15T04:35:57.829Z,3.90
2019-02-15T04:36:33.645Z,3.90
2019-02-15T04:37:09.550Z,3.90
2019-02-15T04:37:45.336Z,3.90
2019-02-15T04:38:21.052Z,3.90
2019-02-15T04:38:56.669Z,3.90
2019-02-15T04:39:32.323Z,3.90
2019-02-15T04:40:08.979Z,3.80
2019-02-15T04:40:44.518Z,3.80
2019-02-15T04:41:20.350Z,3.80
2019-02-15T04:41:56.049Z,3.80
2019-02-15T04:42:31.868Z,3.80
2019-02-15T04:43:07.579Z,3.80
2019-02-15T04:43:43.399Z,3.80
2019-02-15T04:44:19.019Z,3.80
2019-02-15T04:44:54.729Z,3.80
2019-02-15T04:45:30.425Z,3.80
2019-02-15T04:46:06.238Z,3.80
2019-02-15T04:46:42.131Z,3.80
2019-02-15T04:47:18.139Z,3.80
2019-02-15T04:47:53.727Z,3.80
2019-02-15T04:48:29.387Z,3.80
2019-02-15T04:49:05.173Z,3.80
2019-02-15T04:49:41.056Z,3.80
2019-02-15T04:50:17.037Z,3.80
2019-02-15T04:50:52.800Z,3.80
2019-02-15T04:51:28.501Z,3.80
2019-02-15T04:52:04.179Z,3.90
2019-02-15T04:52:39.813Z,3.90
2019-02-15T04:53:15.340Z,3.90
2019-02-15T04:53:50.933Z,3.90
2019-02-15T04:54:26.680Z,3.90
2019-02-15T04:55:02.360Z,3.90
2019-02-15T04:55:38.016Z,3.90
2019-02-15T04:56:13.594Z,3.80
2019-02-15T04:56:49.302Z,3.90
2019-02-15T04:57:25.102Z,3.80
2019-02-15T04:58:00.793Z,3.80
2019-02-15T04:58:36.463Z,3.90
2019-02-15T04:59:12.225Z,3.90
2019-02-15T04:59:47.979Z,3.80
2019-02-15T05:00:23.700Z,3.80
2019-02-15T05:00:59.300Z,3.80
2019-02-15T05:01:34.967Z,3.80
2019-02-15T05:02:10.466Z,3.80
2019-02-15T05:02:46.240Z,3.90
2019-02-15T05:03:21.989Z,3.90
2019-02-15T05:03:57.807Z,3.90
2019-02-15T05:04:33.569Z,3.90
2019-02-15T05:05:09.447Z,3.90
2019-02-15T05:05:44.978Z,3.90
2019-02-15T05:06:20.540Z,3.80
2019-02-15T05:06:56.211Z,3.90
2019-02-15T05:07:31.991Z,3.80
2019-02-15T05:08:07.471Z,3.80
2019-02-15T05:08:43.048Z,3.80
2019-02-15T05:09:18.588Z,3.80
2019-02-15T05:09:54.271Z,3.80
2019-02-15T05:10:29.966Z,3.80
2019-02-15T05:11:05.529Z,3.80
2019-02-15T05:11:41.281Z,3.80
2019-02-15T05:12:17.861Z,3.80
2019-02-15T05:12:53.491Z,3.80
2019-02-15T05:13:29.104Z,3.80
2019-02-15T05:14:04.803Z,3.80
2019-02-15T05:14:40.546Z,3.80
2019-02-15T05:15:16.350Z,3.80
2019-02-15T05:15:52.033Z,3.80
2019-02-15T05:16:27.544Z,3.80
2019-02-15T05:17:03.171Z,3.80
2019-02-15T05:17:38.713Z,3.90
2019-02-15T05:18:14.508Z,3.90
2019-02-15T05:18:50.227Z,3.90
2019-02-15T05:19:25.842Z,3.90
2019-02-15T05:20:01.486Z,3.90
2019-02-15T05:20:37.411Z,3.90
2019-02-15T05:21:13.064Z,3.80
2019-02-15T05:21:48.744Z,3.90
2019-02-15T05:22:24.685Z,3.90
2019-02-15T05:23:00.485Z,3.90
2019-02-15T05:23:36.144Z,3.90
2019-02-15T05:24:11.831Z,3.90
2019-02-15T05:24:47.930Z,3.90
2019-02-15T05:25:23.637Z,3.90
2019-02-15T05:25:59.393Z,3.90
2019-02-15T05:26:35.213Z,3.90
2019-02-15T05:27:10.878Z,3.90
2019-02-15T05:27:46.542Z,3.90
2019-02-15T05:28:22.318Z,3.90
2019-02-15T05:28:57.968Z,3.90
2019-02-15T05:29:33.948Z,3.90
2019-02-15T05:30:09.824Z,3.90
2019-02-15T05:30:45.626Z,3.90
2019-02-15T05:31:21.730Z,3.90
2019-02-15T05:31:57.533Z,3.90
2019-02-15T05:32:33.153Z,3.90
2019-02-15T05:33:08.655Z,3.80
2019-02-15T05:33:44.448Z,3.90
2019-02-15T05:34:20.279Z,3.80
2019-02-15T05:34:55.997Z,3.80
2019-02-15T05:35:31.822Z,3.90
2019-02-15T05:36:07.414Z,3.80
2019-02-15T05:36:42.960Z,3.80
2019-02-15T05:37:18.499Z,3.80
2019-02-15T05:37:54.161Z,3.80
2019-02-15T05:38:30.363Z,3.80
2019-02-15T05:39:08.398Z,3.80
2019-02-15T05:39:43.873Z,3.80
2019-02-15T05:40:19.614Z,3.80
2019-02-15T05:40:55.335Z,3.80
2019-02-15T05:41:30.931Z,3.80
2019-02-15T05:42:06.645Z,3.80
2019-02-15T05:42:42.382Z,3.80
2019-02-15T05:43:18.351Z,3.80
2019-02-15T05:43:54.190Z,3.90
2019-02-15T05:44:30.083Z,3.90
2019-02-15T05:45:06.065Z,3.90
2019-02-15T05:45:42.471Z,3.80
2019-02-15T05:46:18.517Z,3.80
2019-02-15T05:46:54.651Z,3.80
2019-02-15T05:47:30.872Z,3.90
2019-02-15T05:48:07.066Z,3.90
2019-02-15T05:48:43.725Z,3.90
2019-02-15T05:49:19.550Z,3.80
2019-02-15T05:49:55.747Z,3.80
2019-02-15T05:50:31.709Z,3.80
2019-02-15T05:51:07.965Z,3.80
2019-02-15T05:51:44.102Z,3.80
2019-02-15T05:52:19.983Z,3.80
2019-02-15T05:52:56.042Z,3.80
2019-02-15T05:53:32.243Z,3.80
2019-02-15T05:54:08.433Z,3.80
2019-02-15T05:54:44.901Z,3.80
2019-02-15T05:55:21.289Z,3.90
2019-02-15T05:55:57.199Z,3.90
2019-02-15T05:56:33.259Z,3.80
2019-02-15T05:57:09.706Z,3.80
2019-02-15T05:57:45.658Z,3.80
2019-02-15T05:58:21.576Z,3.80
2019-02-15T05:58:57.889Z,3.80
2019-02-15T05:59:33.916Z,3.80
2019-02-15T06:00:10.758Z,3.80
2019-02-15T06:00:46.809Z,3.80
2019-02-15T06:01:23.506Z,3.80
2019-02-15T06:01:59.556Z,3.80
2019-02-15T06:02:35.576Z,3.80
2019-02-15T06:03:13.708Z,3.80
2019-02-15T06:03:49.076Z,3.80
2019-02-15T06:04:24.716Z,3.80
2019-02-15T06:05:00.464Z,3.80
2019-02-15T06:05:36.218Z,3.80
2019-02-15T06:06:12.092Z,3.80
2019-02-15T06:06:47.750Z,3.80
2019-02-15T06:07:23.631Z,3.80
2019-02-15T06:07:59.293Z,3.80
2019-02-15T06:08:35.452Z,3.80
2019-02-15T06:09:11.162Z,3.80
2019-02-15T06:09:46.870Z,3.80
2019-02-15T06:10:22.557Z,3.80
2019-02-15T06:11:06.455Z,3.80
2019-02-15T06:11:35.620Z,3.80
2019-02-15T06:12:11.521Z,3.80
2019-02-15T06:12:47.165Z,3.80
2019-02-15T06:13:23.267Z,3.80
2019-02-15T06:13:58.993Z,3.80
2019-02-15T06:14:34.741Z,3.80
2019-02-15T06:15:15.071Z,3.80
2019-02-15T06:15:47.945Z,3.80
2019-02-15T06:16:23.675Z,3.80
2019-02-15T06:17:01.635Z,3.80
2019-02-15T06:17:36.642Z,3.80
2019-02-15T06:18:12.224Z,3.80
2019-02-15T06:18:48.803Z,3.80
2019-02-15T06:19:24.470Z,3.80
2019-02-15T06:20:00.330Z,3.80
2019-02-15T06:20:36.140Z,3.80
2019-02-15T06:21:11.785Z,3.80
2019-02-15T06:21:47.470Z,3.80
2019-02-15T06:22:23.283Z,3.80
2019-02-15T06:22:59.029Z,3.80
2019-02-15T06:23:34.694Z,3.80
2019-02-15T06:24:10.295Z,3.80
2019-02-15T06:24:46.027Z,3.90
2019-02-15T06:25:21.809Z,3.90
2019-02-15T06:25:57.664Z,3.90
2019-02-15T06:26:33.378Z,3.80
2019-02-15T06:27:09.119Z,3.80
2019-02-15T06:27:44.959Z,3.90
2019-02-15T06:28:20.568Z,3.90
2019-02-15T06:28:56.233Z,3.80
2019-02-15T06:29:32.482Z,3.90
2019-02-15T06:30:08.570Z,3.90
2019-02-15T06:30:44.183Z,3.90
2019-02-15T06:31:19.969Z,3.90
2019-02-15T06:31:55.750Z,3.90
2019-02-15T06:32:31.504Z,3.90
2019-02-15T06:33:07.321Z,3.80
2019-02-15T06:33:43.024Z,3.90
2019-02-15T06:34:18.880Z,3.90
2019-02-15T06:34:54.574Z,3.90
2019-02-15T06:35:30.352Z,3.90
2019-02-15T06:36:06.031Z,3.90
2019-02-15T06:36:41.941Z,3.90
2019-02-15T06:37:17.469Z,3.90
2019-02-15T06:37:53.327Z,3.90
2019-02-15T06:38:34.777Z,3.80
2019-02-15T06:39:08.062Z,3.80
2019-02-15T06:39:43.800Z,3.80
2019-02-15T06:40:19.587Z,3.80
2019-02-15T06:40:55.237Z,3.80
2019-02-15T06:41:30.796Z,3.90
2019-02-15T06:42:06.767Z,3.90
2019-02-15T06:42:42.483Z,3.90
2019-02-15T06:43:18.228Z,3.90
2019-02-15T06:43:53.918Z,3.90
2019-02-15T06:44:29.551Z,3.90
2019-02-15T06:45:06.003Z,3.80
2019-02-15T06:45:41.884Z,3.80
2019-02-15T06:46:18.012Z,3.80
2019-02-15T06:46:53.615Z,3.80
2019-02-15T06:47:29.215Z,3.80
2019-02-15T06:48:04.892Z,3.80
2019-02-15T06:48:40.750Z,3.80
2019-02-15T06:49:16.382Z,3.80
2019-02-15T06:49:52.000Z,3.80
2019-02-15T06:50:27.801Z,3.80
2019-02-15T06:51:03.509Z,3.80
2019-02-15T06:51:39.129Z,3.80
2019-02-15T06:52:14.778Z,3.80
2019-02-15T06:52:50.654Z,3.80
2019-02-15T06:53:26.286Z,3.80
2019-02-15T06:54:02.024Z,3.80
2019-02-15T06:54:37.782Z,3.80
2019-02-15T06:55:13.574Z,3.80
2019-02-15T06:55:49.683Z,3.80
2019-02-15T06:56:25.283Z,3.80
2019-02-15T06:57:01.022Z,3.80
2019-02-15T06:57:36.736Z,3.80
2019-02-15T06:58:12.589Z,3.80
2019-02-15T06:59:06.240Z,3.80
2019-02-15T07:00:09.945Z,3.90
2019-02-15T07:01:14.947Z,3.90
2019-02-15T07:02:09.547Z,3.90
2019-02-15T07:03:04.016Z,3.90
2019-02-15T07:03:58.599Z,3.90
2019-02-15T07:04:42.348Z,3.80
2019-02-15T07:05:26.048Z,3.80
2019-02-15T07:06:01.917Z,3.90
2019-02-15T07:06:37.619Z,3.80
2019-02-15T07:07:13.309Z,3.90
2019-02-15T07:07:49.001Z,3.90
2019-02-15T07:08:24.649Z,3.90
2019-02-15T07:09:00.516Z,3.90
2019-02-15T07:09:36.301Z,3.90
2019-02-15T07:10:12.069Z,3.90
2019-02-15T07:10:47.740Z,3.90
2019-02-15T07:11:23.449Z,3.90
2019-02-15T07:11:59.221Z,3.90
2019-02-15T07:12:35.300Z,3.90
2019-02-15T07:13:10.719Z,3.90
2019-02-15T07:13:46.452Z,3.90
2019-02-15T07:14:22.230Z,3.90
2019-02-15T07:14:58.056Z,3.90
2019-02-15T07:15:34.155Z,3.90
2019-02-15T07:16:11.201Z,3.90
2019-02-15T07:16:46.944Z,3.90
2019-02-15T07:17:22.985Z,4.00
2019-02-15T07:17:58.945Z,4.00
2019-02-15T07:18:34.842Z,4.00
2019-02-15T07:19:10.701Z,4.00
2019-02-15T07:19:46.528Z,4.00
2019-02-15T07:20:22.106Z,4.00
2019-02-15T07:20:58.042Z,4.00
2019-02-15T07:21:34.023Z,4.00
2019-02-15T07:22:09.926Z,4.00
2019-02-15T07:22:45.862Z,4.00
2019-02-15T07:23:21.665Z,4.10
2019-02-15T07:23:57.382Z,4.10
2019-02-15T07:24:33.379Z,4.10
2019-02-15T07:25:10.106Z,4.10
2019-02-15T07:25:45.804Z,4.10
2019-02-15T07:26:21.789Z,4.10
2019-02-15T07:26:57.511Z,4.10
2019-02-15T07:27:33.155Z,4.10
2019-02-15T07:28:08.917Z,4.20
2019-02-15T07:28:44.710Z,4.20
2019-02-15T07:29:20.520Z,4.20
2019-02-15T07:29:56.198Z,4.20
2019-02-15T07:30:31.818Z,4.20
2019-02-15T07:31:07.696Z,4.20
2019-02-15T07:31:43.490Z,4.20
2019-02-15T07:32:19.363Z,4.30
2019-02-15T07:32:55.239Z,4.30
2019-02-15T07:33:30.900Z,4.30
2019-02-15T07:34:06.608Z,4.30
2019-02-15T07:34:42.281Z,4.40
2019-02-15T07:35:18.059Z,4.40
2019-02-15T07:35:54.342Z,4.40
2019-02-15T07:36:31.532Z,4.40
2019-02-15T07:37:07.305Z,4.40
2019-02-15T07:37:43.376Z,4.50
2019-02-15T07:38:19.312Z,4.50
2019-02-15T07:38:55.201Z,4.50
2019-02-15T07:39:30.881Z,4.50
2019-02-15T07:40:07.403Z,4.60
2019-02-15T07:40:43.243Z,4.60
2019-02-15T07:41:19.460Z,4.60
2019-02-15T07:41:55.619Z,4.60
2019-02-15T07:42:31.907Z,4.60
2019-02-15T07:43:07.859Z,4.70
2019-02-15T07:43:43.763Z,4.70
2019-02-15T07:44:20.186Z,4.70
2019-02-15T07:44:55.988Z,4.70
2019-02-15T07:45:31.738Z,4.80
2019-02-15T07:46:07.458Z,4.80
2019-02-15T07:46:43.297Z,4.80
2019-02-15T07:47:19.140Z,4.80
2019-02-15T07:47:55.079Z,4.80
2019-02-15T07:48:30.927Z,4.80
2019-02-15T07:49:07.054Z,4.80
2019-02-15T07:49:43.152Z,4.90
2019-02-15T07:50:19.396Z,4.90
2019-02-15T07:50:55.067Z,4.90
2019-02-15T07:51:31.390Z,4.90
2019-02-15T07:52:07.212Z,4.90
2019-02-15T07:52:42.950Z,4.90
2019-02-15T07:53:19.751Z,4.90
2019-02-15T07:53:55.563Z,5.00
2019-02-15T07:54:31.341Z,5.00
2019-02-15T07:55:08.172Z,5.00
2019-02-15T07:55:43.948Z,5.00
2019-02-15T07:56:23.523Z,5.00
2019-02-15T07:56:59.125Z,5.00
2019-02-15T07:57:34.828Z,5.10
2019-02-15T07:58:10.388Z,5.10
2019-02-15T07:58:46.339Z,5.10
2019-02-15T07:59:22.230Z,5.10
2019-02-15T08:00:00.509Z,5.10
2019-02-15T08:00:35.967Z,5.10
2019-02-15T08:01:11.568Z,5.20
2019-02-15T08:01:47.635Z,5.20
2019-02-15T08:02:23.256Z,5.20
2019-02-15T08:02:58.723Z,5.20
2019-02-15T08:03:34.371Z,5.20
2019-02-15T08:04:10.001Z,5.20
2019-02-15T08:04:45.520Z,5.20
2019-02-15T08:05:21.039Z,5.20
2019-02-15T08:05:56.534Z,5.20
2019-02-15T08:06:32.121Z,5.30
2019-02-15T08:07:07.461Z,5.30
2019-02-15T08:07:42.991Z,5.30
2019-02-15T08:08:18.431Z,5.30
2019-02-15T08:08:53.832Z,5.30
2019-02-15T08:09:29.358Z,5.30
2019-02-15T08:10:05.252Z,5.40
2019-02-15T08:10:40.811Z,5.40
2019-02-15T08:11:16.335Z,5.40
2019-02-15T08:11:51.824Z,5.40
2019-02-15T08:12:30.262Z,5.40
2019-02-15T08:13:05.842Z,5.40
2019-02-15T08:13:41.491Z,5.40
2019-02-15T08:14:17.666Z,5.40
2019-02-15T08:14:53.351Z,5.50
2019-02-15T08:15:35.840Z,5.50
2019-02-15T08:16:06.184Z,5.50
2019-02-15T08:16:41.687Z,5.50
2019-02-15T08:17:17.235Z,5.50
2019-02-15T08:17:52.879Z,5.50
2019-02-15T08:18:28.414Z,5.60
2019-02-15T08:19:03.843Z,5.60
2019-02-15T08:19:39.263Z,5.50